sensor_id;sensor_type;location;lat;lon;timestamp;pressure;altitude;pressure_sealevel;temperature;humidity
59337;BME280;45115;52.002;4.686;2023-04-25T00:00:16;101252.63;;;6.43;84.55
59337;BME280;45115;52.002;4.686;2023-04-25T00:02:43;101253.25;;;6.34;84.96
59337;BME280;45115;52.002;4.686;2023-04-25T00:05:11;101253.78;;;6.26;85.19
59337;BME280;45115;52.002;4.686;2023-04-25T00:07:40;101261.41;;;6.21;85.21
59337;BME280;45115;52.002;4.686;2023-04-25T00:10:08;101257.38;;;6.14;85.33
59337;BME280;45115;52.002;4.686;2023-04-25T00:12:37;101263.22;;;5.96;86.17
59337;BME280;45115;52.002;4.686;2023-04-25T00:15:05;101268.78;;;5.94;86.50
59337;BME280;45115;52.002;4.686;2023-04-25T00:17:32;101274.22;;;5.94;86.00
59337;BME280;45115;52.002;4.686;2023-04-25T00:20:00;101273.22;;;5.95;86.21
59337;BME280;45115;52.002;4.686;2023-04-25T00:22:30;101279.50;;;5.83;86.60
59337;BME280;45115;52.002;4.686;2023-04-25T00:24:56;101286.06;;;5.66;87.87
59337;BME280;45115;52.002;4.686;2023-04-25T00:27:25;101277.59;;;5.44;88.56
59337;BME280;45115;52.002;4.686;2023-04-25T00:29:53;101283.72;;;5.34;89.22
59337;BME280;45115;52.002;4.686;2023-04-25T00:32:20;101279.31;;;5.19;89.23
59337;BME280;45115;52.002;4.686;2023-04-25T00:34:46;101278.66;;;5.01;89.94
59337;BME280;45115;52.002;4.686;2023-04-25T00:37:13;101283.53;;;4.96;90.83
59337;BME280;45115;52.002;4.686;2023-04-25T00:39:40;101277.66;;;5.16;90.38
59337;BME280;45115;52.002;4.686;2023-04-25T00:42:09;101273.88;;;5.19;88.73
59337;BME280;45115;52.002;4.686;2023-04-25T00:44:37;101285.09;;;5.27;88.87
59337;BME280;45115;52.002;4.686;2023-04-25T00:47:05;101292.78;;;5.20;88.98
59337;BME280;45115;52.002;4.686;2023-04-25T00:49:33;101288.81;;;5.26;89.71
59337;BME280;45115;52.002;4.686;2023-04-25T00:51:59;101286.66;;;5.31;90.03
59337;BME280;45115;52.002;4.686;2023-04-25T00:54:26;101295.16;;;5.39;89.16
59337;BME280;45115;52.002;4.686;2023-04-25T00:56:53;101291.59;;;5.38;88.70
59337;BME280;45115;52.002;4.686;2023-04-25T00:59:20;101296.16;;;5.38;89.52
59337;BME280;45115;52.002;4.686;2023-04-25T01:01:47;101297.69;;;5.42;89.14
59337;BME280;45115;52.002;4.686;2023-04-25T01:04:15;101296.72;;;5.43;88.71
59337;BME280;45115;52.002;4.686;2023-04-25T01:06:42;101298.25;;;5.47;88.70
59337;BME280;45115;52.002;4.686;2023-04-25T01:09:09;101295.72;;;5.70;87.19
59337;BME280;45115;52.002;4.686;2023-04-25T01:11:36;101293.91;;;5.71;86.81
59337;BME280;45115;52.002;4.686;2023-04-25T01:14:02;101294.22;;;5.66;86.28
59337;BME280;45115;52.002;4.686;2023-04-25T01:16:29;101296.06;;;5.66;85.61
59337;BME280;45115;52.002;4.686;2023-04-25T01:18:56;101296.31;;;5.49;86.27
59337;BME280;45115;52.002;4.686;2023-04-25T01:21:25;101289.00;;;5.23;87.02
59337;BME280;45115;52.002;4.686;2023-04-25T01:23:53;101308.63;;;5.00;87.69
59337;BME280;45115;52.002;4.686;2023-04-25T01:26:21;101309.09;;;5.06;87.75
59337;BME280;45115;52.002;4.686;2023-04-25T01:28:48;101311.06;;;4.90;88.28
59337;BME280;45115;52.002;4.686;2023-04-25T01:31:15;101308.84;;;4.69;89.34
59337;BME280;45115;52.002;4.686;2023-04-25T01:33:43;101313.75;;;4.76;89.98
59337;BME280;45115;52.002;4.686;2023-04-25T01:36:10;101319.50;;;4.72;89.86
59337;BME280;45115;52.002;4.686;2023-04-25T01:38:38;101316.66;;;4.59;89.89
59337;BME280;45115;52.002;4.686;2023-04-25T01:41:06;101321.81;;;4.49;90.39
59337;BME280;45115;52.002;4.686;2023-04-25T01:43:33;101316.38;;;4.49;91.00
59337;BME280;45115;52.002;4.686;2023-04-25T01:46:01;101324.00;;;4.43;90.75
59337;BME280;45115;52.002;4.686;2023-04-25T01:48:28;101318.13;;;4.50;90.85
59337;BME280;45115;52.002;4.686;2023-04-25T01:50:54;101327.59;;;4.43;91.01
59337;BME280;45115;52.002;4.686;2023-04-25T01:53:21;101334.19;;;4.39;91.82
59337;BME280;45115;52.002;4.686;2023-04-25T01:55:49;101327.47;;;4.31;92.57
59337;BME280;45115;52.002;4.686;2023-04-25T01:58:19;101337.66;;;4.41;91.35
59337;BME280;45115;52.002;4.686;2023-04-25T02:01:15;101329.25;;;4.32;91.92
59337;BME280;45115;52.002;4.686;2023-04-25T02:03:48;101327.88;;;4.25;92.44
59337;BME280;45115;52.002;4.686;2023-04-25T02:06:24;101340.81;;;4.20;92.49
59337;BME280;45115;52.002;4.686;2023-04-25T02:08:53;101337.72;;;4.26;92.53
59337;BME280;45115;52.002;4.686;2023-04-25T02:11:21;101338.53;;;4.28;93.56
59337;BME280;45115;52.002;4.686;2023-04-25T02:14:07;101333.72;;;4.47;92.85
59337;BME280;45115;52.002;4.686;2023-04-25T02:16:42;101327.63;;;4.57;92.30
59337;BME280;45115;52.002;4.686;2023-04-25T02:19:10;101334.50;;;4.63;92.81
59337;BME280;45115;52.002;4.686;2023-04-25T02:21:36;101336.34;;;4.63;93.29
59337;BME280;45115;52.002;4.686;2023-04-25T02:24:04;101334.72;;;4.60;93.03
59337;BME280;45115;52.002;4.686;2023-04-25T02:26:32;101333.84;;;4.60;92.81
59337;BME280;45115;52.002;4.686;2023-04-25T02:28:58;101333.25;;;4.69;92.16
59337;BME280;45115;52.002;4.686;2023-04-25T02:31:26;101341.09;;;4.73;92.11
59337;BME280;45115;52.002;4.686;2023-04-25T02:33:53;101341.41;;;4.83;91.53
59337;BME280;45115;52.002;4.686;2023-04-25T02:36:19;101338.59;;;4.84;91.43
59337;BME280;45115;52.002;4.686;2023-04-25T02:38:47;101339.97;;;4.91;91.20
59337;BME280;45115;52.002;4.686;2023-04-25T02:41:14;101329.09;;;4.91;91.10
59337;BME280;45115;52.002;4.686;2023-04-25T02:43:42;101338.41;;;5.01;90.27
59337;BME280;45115;52.002;4.686;2023-04-25T02:46:09;101333.94;;;5.00;90.39
59337;BME280;45115;52.002;4.686;2023-04-25T02:48:36;101337.41;;;5.16;88.52
59337;BME280;45115;52.002;4.686;2023-04-25T02:51:02;101344.94;;;5.25;87.75
59337;BME280;45115;52.002;4.686;2023-04-25T02:53:29;101347.66;;;5.25;86.86
59337;BME280;45115;52.002;4.686;2023-04-25T02:55:56;101340.09;;;5.30;87.17
59337;BME280;45115;52.002;4.686;2023-04-25T02:58:24;101343.38;;;5.35;86.97
59337;BME280;45115;52.002;4.686;2023-04-25T03:00:54;101329.88;;;5.48;86.31
59337;BME280;45115;52.002;4.686;2023-04-25T03:03:20;101330.75;;;5.48;85.49
59337;BME280;45115;52.002;4.686;2023-04-25T03:05:48;101338.69;;;5.51;85.90
59337;BME280;45115;52.002;4.686;2023-04-25T03:08:18;101337.91;;;5.49;85.90
59337;BME280;45115;52.002;4.686;2023-04-25T03:10:45;101339.41;;;5.41;86.67
59337;BME280;45115;52.002;4.686;2023-04-25T03:13:13;101348.03;;;5.47;86.44
59337;BME280;45115;52.002;4.686;2023-04-25T03:15:42;101344.22;;;5.50;86.33
59337;BME280;45115;52.002;4.686;2023-04-25T03:18:10;101342.59;;;5.47;85.57
59337;BME280;45115;52.002;4.686;2023-04-25T03:20:38;101328.81;;;5.50;86.00
59337;BME280;45115;52.002;4.686;2023-04-25T03:23:08;101339.38;;;5.55;85.56
59337;BME280;45115;52.002;4.686;2023-04-25T03:25:35;101349.72;;;5.62;86.29
59337;BME280;45115;52.002;4.686;2023-04-25T03:28:03;101340.41;;;5.66;84.59
59337;BME280;45115;52.002;4.686;2023-04-25T03:30:30;101346.97;;;5.91;83.79
59337;BME280;45115;52.002;4.686;2023-04-25T03:32:57;101330.22;;;5.97;82.69
59337;BME280;45115;52.002;4.686;2023-04-25T03:35:26;101341.59;;;6.16;82.52
59337;BME280;45115;52.002;4.686;2023-04-25T03:37:53;101344.63;;;6.11;83.09
59337;BME280;45115;52.002;4.686;2023-04-25T03:40:25;101335.19;;;6.17;82.16
59337;BME280;45115;52.002;4.686;2023-04-25T03:43:12;101355.28;;;6.14;83.37
59337;BME280;45115;52.002;4.686;2023-04-25T03:45:43;101346.69;;;6.08;84.14
59337;BME280;45115;52.002;4.686;2023-04-25T03:48:11;101350.06;;;6.11;83.48
59337;BME280;45115;52.002;4.686;2023-04-25T03:50:39;101355.22;;;6.16;83.62
59337;BME280;45115;52.002;4.686;2023-04-25T03:53:06;101359.09;;;6.12;84.28
59337;BME280;45115;52.002;4.686;2023-04-25T03:55:53;101352.63;;;6.00;84.41
59337;BME280;45115;52.002;4.686;2023-04-25T03:58:19;101355.34;;;6.00;85.32
59337;BME280;45115;52.002;4.686;2023-04-25T04:00:48;101359.16;;;5.98;85.15
59337;BME280;45115;52.002;4.686;2023-04-25T04:03:15;101365.00;;;5.92;84.96
59337;BME280;45115;52.002;4.686;2023-04-25T04:05:44;101373.69;;;5.84;85.64
59337;BME280;45115;52.002;4.686;2023-04-25T04:08:12;101384.81;;;5.94;85.25
59337;BME280;45115;52.002;4.686;2023-04-25T04:10:39;101374.03;;;5.92;85.12
59337;BME280;45115;52.002;4.686;2023-04-25T04:13:06;101381.19;;;6.20;83.11
59337;BME280;45115;52.002;4.686;2023-04-25T04:15:33;101379.47;;;6.19;83.53
59337;BME280;45115;52.002;4.686;2023-04-25T04:18:00;101379.34;;;6.20;83.72
59337;BME280;45115;52.002;4.686;2023-04-25T04:20:28;101372.09;;;6.21;84.28
59337;BME280;45115;52.002;4.686;2023-04-25T04:22:56;101379.75;;;6.14;84.55
59337;BME280;45115;52.002;4.686;2023-04-25T04:25:24;101382.31;;;6.30;83.58
59337;BME280;45115;52.002;4.686;2023-04-25T04:28:15;101394.13;;;6.16;84.87
59337;BME280;45115;52.002;4.686;2023-04-25T04:31:02;101388.03;;;6.13;84.95
59337;BME280;45115;52.002;4.686;2023-04-25T04:33:29;101389.03;;;6.12;84.56
59337;BME280;45115;52.002;4.686;2023-04-25T04:35:59;101384.97;;;6.05;84.75
59337;BME280;45115;52.002;4.686;2023-04-25T04:38:28;101378.59;;;5.92;84.95
59337;BME280;45115;52.002;4.686;2023-04-25T04:40:58;101384.50;;;5.98;85.33
59337;BME280;45115;52.002;4.686;2023-04-25T04:43:46;101391.34;;;5.91;84.40
59337;BME280;45115;52.002;4.686;2023-04-25T04:46:23;101401.00;;;5.95;85.34
59337;BME280;45115;52.002;4.686;2023-04-25T04:49:00;101406.84;;;6.03;83.38
59337;BME280;45115;52.002;4.686;2023-04-25T04:51:41;101410.09;;;6.08;82.64
59337;BME280;45115;52.002;4.686;2023-04-25T04:54:35;101413.28;;;6.15;79.94
59337;BME280;45115;52.002;4.686;2023-04-25T04:57:35;101411.44;;;6.15;79.75
59337;BME280;45115;52.002;4.686;2023-04-25T05:00:20;101421.75;;;6.10;79.51
59337;BME280;45115;52.002;4.686;2023-04-25T05:02:47;101423.28;;;6.14;80.19
59337;BME280;45115;52.002;4.686;2023-04-25T05:05:14;101428.25;;;6.08;80.82
59337;BME280;45115;52.002;4.686;2023-04-25T05:07:59;101424.09;;;6.02;81.88
59337;BME280;45115;52.002;4.686;2023-04-25T05:10:46;101432.28;;;5.88;82.56
59337;BME280;45115;52.002;4.686;2023-04-25T05:13:34;101430.81;;;5.97;81.69
59337;BME280;45115;52.002;4.686;2023-04-25T05:16:19;101437.25;;;5.96;81.89
59337;BME280;45115;52.002;4.686;2023-04-25T05:18:51;101444.34;;;5.98;81.58
59337;BME280;45115;52.002;4.686;2023-04-25T05:21:36;101446.28;;;5.82;82.07
59337;BME280;45115;52.002;4.686;2023-04-25T05:24:14;101453.66;;;5.80;82.34
59337;BME280;45115;52.002;4.686;2023-04-25T05:27:12;101458.41;;;5.77;83.85
59337;BME280;45115;52.002;4.686;2023-04-25T05:29:57;101467.34;;;5.93;82.73
59337;BME280;45115;52.002;4.686;2023-04-25T05:32:41;101472.38;;;5.99;83.12
59337;BME280;45115;52.002;4.686;2023-04-25T05:35:08;101469.84;;;6.10;83.30
59337;BME280;45115;52.002;4.686;2023-04-25T05:37:43;101478.06;;;6.22;82.62
59337;BME280;45115;52.002;4.686;2023-04-25T05:40:12;101484.28;;;6.24;82.50
59337;BME280;45115;52.002;4.686;2023-04-25T05:43:13;101480.88;;;6.21;81.93
59337;BME280;45115;52.002;4.686;2023-04-25T05:45:48;101481.22;;;6.29;82.00
59337;BME280;45115;52.002;4.686;2023-04-25T05:48:29;101487.03;;;6.37;80.54
59337;BME280;45115;52.002;4.686;2023-04-25T05:50:59;101500.34;;;6.41;79.82
59337;BME280;45115;52.002;4.686;2023-04-25T05:53:58;101511.63;;;5.95;82.82
59337;BME280;45115;52.002;4.686;2023-04-25T05:56:26;101513.34;;;5.82;83.71
59337;BME280;45115;52.002;4.686;2023-04-25T05:58:54;101521.25;;;5.58;85.48
59337;BME280;45115;52.002;4.686;2023-04-25T06:01:22;101513.75;;;5.33;85.45
59337;BME280;45115;52.002;4.686;2023-04-25T06:03:48;101509.94;;;5.22;86.33
59337;BME280;45115;52.002;4.686;2023-04-25T06:06:16;101516.50;;;5.18;88.87
59337;BME280;45115;52.002;4.686;2023-04-25T06:08:43;101533.22;;;5.26;89.44
59337;BME280;45115;52.002;4.686;2023-04-25T06:11:10;101526.06;;;5.39;88.07
59337;BME280;45115;52.002;4.686;2023-04-25T06:13:37;101532.78;;;5.61;87.52
59337;BME280;45115;52.002;4.686;2023-04-25T06:16:06;101530.81;;;5.63;86.62
59337;BME280;45115;52.002;4.686;2023-04-25T06:18:32;101531.13;;;5.73;86.91
59337;BME280;45115;52.002;4.686;2023-04-25T06:20:59;101541.00;;;5.60;86.04
59337;BME280;45115;52.002;4.686;2023-04-25T06:23:26;101544.13;;;5.54;85.41
59337;BME280;45115;52.002;4.686;2023-04-25T06:26:01;101554.59;;;5.46;88.57
59337;BME280;45115;52.002;4.686;2023-04-25T06:28:29;101558.94;;;5.34;89.55
59337;BME280;45115;52.002;4.686;2023-04-25T06:30:56;101544.31;;;5.37;89.48
59337;BME280;45115;52.002;4.686;2023-04-25T06:33:25;101550.63;;;5.51;89.38
59337;BME280;45115;52.002;4.686;2023-04-25T06:35:53;101551.78;;;5.76;89.02
59337;BME280;45115;52.002;4.686;2023-04-25T06:38:24;101550.66;;;5.94;89.87
59337;BME280;45115;52.002;4.686;2023-04-25T06:40:52;101547.53;;;6.14;89.67
59337;BME280;45115;52.002;4.686;2023-04-25T06:43:18;101551.69;;;6.19;86.59
59337;BME280;45115;52.002;4.686;2023-04-25T06:45:57;101549.13;;;6.30;86.22
59337;BME280;45115;52.002;4.686;2023-04-25T06:48:29;101550.44;;;6.51;86.70
59337;BME280;45115;52.002;4.686;2023-04-25T06:50:57;101552.94;;;6.81;87.45
59337;BME280;45115;52.002;4.686;2023-04-25T06:53:25;101555.31;;;7.12;86.55
59337;BME280;45115;52.002;4.686;2023-04-25T06:55:58;101549.03;;;7.37;84.94
59337;BME280;45115;52.002;4.686;2023-04-25T06:58:34;101556.28;;;7.50;85.34
59337;BME280;45115;52.002;4.686;2023-04-25T07:01:08;101557.38;;;7.73;83.96
59337;BME280;45115;52.002;4.686;2023-04-25T07:03:37;101555.38;;;7.87;82.26
59337;BME280;45115;52.002;4.686;2023-04-25T07:06:08;101557.41;;;8.09;82.91
59337;BME280;45115;52.002;4.686;2023-04-25T07:08:34;101552.91;;;8.33;81.74
59337;BME280;45115;52.002;4.686;2023-04-25T07:11:01;101545.94;;;8.65;80.21
59337;BME280;45115;52.002;4.686;2023-04-25T07:13:28;101546.69;;;8.91;78.34
59337;BME280;45115;52.002;4.686;2023-04-25T07:15:55;101554.88;;;9.26;74.51
59337;BME280;45115;52.002;4.686;2023-04-25T07:18:22;101547.66;;;9.70;73.72
59337;BME280;45115;52.002;4.686;2023-04-25T07:20:50;101556.34;;;9.64;75.24
59337;BME280;45115;52.002;4.686;2023-04-25T07:23:18;101555.84;;;9.59;72.88
59337;BME280;45115;52.002;4.686;2023-04-25T07:25:45;101557.91;;;9.34;74.37
59337;BME280;45115;52.002;4.686;2023-04-25T07:28:14;101564.72;;;9.04;73.74
59337;BME280;45115;52.002;4.686;2023-04-25T07:30:41;101565.03;;;8.89;75.98
59337;BME280;45115;52.002;4.686;2023-04-25T07:33:08;101569.59;;;10.26;73.64
59337;BME280;45115;52.002;4.686;2023-04-25T07:35:34;101564.56;;;11.59;66.42
59337;BME280;45115;52.002;4.686;2023-04-25T07:38:03;101574.31;;;11.31;67.28
59337;BME280;45115;52.002;4.686;2023-04-25T07:40:32;101567.56;;;10.61;69.20
59337;BME280;45115;52.002;4.686;2023-04-25T07:43:05;101576.41;;;9.76;70.08
59337;BME280;45115;52.002;4.686;2023-04-25T07:45:38;101580.25;;;9.28;71.65
59337;BME280;45115;52.002;4.686;2023-04-25T07:48:05;101575.00;;;8.90;71.32
59337;BME280;45115;52.002;4.686;2023-04-25T07:50:34;101581.34;;;8.54;71.97
59337;BME280;45115;52.002;4.686;2023-04-25T07:53:03;101581.56;;;8.64;73.41
59337;BME280;45115;52.002;4.686;2023-04-25T07:55:35;101569.91;;;11.08;64.29
59337;BME280;45115;52.002;4.686;2023-04-25T07:58:13;101566.22;;;13.20;58.40
59337;BME280;45115;52.002;4.686;2023-04-25T08:00:43;101572.03;;;13.36;56.02
59337;BME280;45115;52.002;4.686;2023-04-25T08:03:27;101570.19;;;11.05;58.45
59337;BME280;45115;52.002;4.686;2023-04-25T08:05:54;101586.44;;;9.64;61.65
59337;BME280;45115;52.002;4.686;2023-04-25T08:08:24;101586.41;;;9.19;63.25
59337;BME280;45115;52.002;4.686;2023-04-25T08:10:51;101595.69;;;8.45;65.38
59337;BME280;45115;52.002;4.686;2023-04-25T08:13:18;101610.47;;;8.30;66.55
59337;BME280;45115;52.002;4.686;2023-04-25T08:15:44;101604.06;;;9.49;63.58
59337;BME280;45115;52.002;4.686;2023-04-25T08:18:11;101595.94;;;11.13;58.06
59337;BME280;45115;52.002;4.686;2023-04-25T08:20:38;101600.44;;;12.08;57.59
59337;BME280;45115;52.002;4.686;2023-04-25T08:23:07;101597.97;;;12.84;53.86
59337;BME280;45115;52.002;4.686;2023-04-25T08:25:52;101608.06;;;12.65;51.76
59337;BME280;45115;52.002;4.686;2023-04-25T08:28:23;101612.09;;;12.61;52.80
59337;BME280;45115;52.002;4.686;2023-04-25T08:30:50;101602.34;;;12.96;52.86
59337;BME280;45115;52.002;4.686;2023-04-25T08:33:18;101609.75;;;11.23;52.51
59337;BME280;45115;52.002;4.686;2023-04-25T08:35:57;101623.25;;;11.15;54.65
59337;BME280;45115;52.002;4.686;2023-04-25T08:38:26;101621.63;;;10.26;55.73
59337;BME280;45115;52.002;4.686;2023-04-25T08:40:54;101627.91;;;9.93;58.74
59337;BME280;45115;52.002;4.686;2023-04-25T08:43:24;101640.91;;;9.33;61.27
59337;BME280;45115;52.002;4.686;2023-04-25T08:45:53;101647.75;;;8.91;62.16
59337;BME280;45115;52.002;4.686;2023-04-25T08:48:33;101653.38;;;8.41;64.64
59337;BME280;45115;52.002;4.686;2023-04-25T08:51:02;101658.72;;;8.78;64.82
59337;BME280;45115;52.002;4.686;2023-04-25T08:53:30;101659.00;;;9.81;57.89
59337;BME280;45115;52.002;4.686;2023-04-25T08:56:02;101656.34;;;10.80;56.36
59337;BME280;45115;52.002;4.686;2023-04-25T08:58:33;101660.72;;;10.50;55.62
59337;BME280;45115;52.002;4.686;2023-04-25T09:01:00;101666.63;;;11.10;54.42
59337;BME280;45115;52.002;4.686;2023-04-25T09:03:31;101658.44;;;11.42;56.45
59337;BME280;45115;52.002;4.686;2023-04-25T09:05:58;101677.25;;;10.81;58.50
59337;BME280;45115;52.002;4.686;2023-04-25T09:08:24;101679.00;;;10.16;58.22
59337;BME280;45115;52.002;4.686;2023-04-25T09:10:52;101679.19;;;9.56;58.93
59337;BME280;45115;52.002;4.686;2023-04-25T09:13:26;101695.78;;;9.42;58.67
59337;BME280;45115;52.002;4.686;2023-04-25T09:16:16;101689.75;;;9.61;54.87
59337;BME280;45115;52.002;4.686;2023-04-25T09:19:03;101697.66;;;10.11;54.77
59337;BME280;45115;52.002;4.686;2023-04-25T09:21:34;101703.41;;;10.41;54.27
59337;BME280;45115;52.002;4.686;2023-04-25T09:24:02;101701.75;;;10.17;55.61
59337;BME280;45115;52.002;4.686;2023-04-25T09:26:29;101705.88;;;10.22;57.68
59337;BME280;45115;52.002;4.686;2023-04-25T09:29:06;101733.50;;;10.19;63.62
59337;BME280;45115;52.002;4.686;2023-04-25T09:31:35;101732.94;;;10.03;63.61
59337;BME280;45115;52.002;4.686;2023-04-25T09:34:03;101733.97;;;9.78;65.20
59337;BME280;45115;52.002;4.686;2023-04-25T09:36:40;101744.25;;;9.64;64.04
59337;BME280;45115;52.002;4.686;2023-04-25T09:39:32;101739.50;;;9.66;67.20
59337;BME280;45115;52.002;4.686;2023-04-25T09:42:09;101739.34;;;9.56;65.22
59337;BME280;45115;52.002;4.686;2023-04-25T09:44:37;101745.03;;;9.77;65.66
59337;BME280;45115;52.002;4.686;2023-04-25T09:47:09;101743.81;;;9.81;65.33
59337;BME280;45115;52.002;4.686;2023-04-25T09:49:39;101748.59;;;9.90;64.23
59337;BME280;45115;52.002;4.686;2023-04-25T09:52:13;101751.94;;;9.93;65.42
59337;BME280;45115;52.002;4.686;2023-04-25T09:54:49;101761.44;;;10.00;62.78
59337;BME280;45115;52.002;4.686;2023-04-25T09:57:24;101754.03;;;10.13;62.33
59337;BME280;45115;52.002;4.686;2023-04-25T09:59:55;101754.81;;;10.27;61.40
59337;BME280;45115;52.002;4.686;2023-04-25T10:02:24;101753.22;;;10.35;60.21
59337;BME280;45115;52.002;4.686;2023-04-25T10:04:55;101750.88;;;10.64;62.90
59337;BME280;45115;52.002;4.686;2023-04-25T10:07:30;101763.22;;;10.80;58.22
59337;BME280;45115;52.002;4.686;2023-04-25T10:10:00;101743.00;;;10.48;59.93
59337;BME280;45115;52.002;4.686;2023-04-25T10:12:29;101763.44;;;10.55;59.23
59337;BME280;45115;52.002;4.686;2023-04-25T10:14:58;101760.09;;;10.85;58.07
59337;BME280;45115;52.002;4.686;2023-04-25T10:17:26;101762.47;;;11.11;59.24
59337;BME280;45115;52.002;4.686;2023-04-25T10:19:54;101758.47;;;11.04;58.25
59337;BME280;45115;52.002;4.686;2023-04-25T10:22:26;101765.72;;;10.83;57.59
59337;BME280;45115;52.002;4.686;2023-04-25T10:24:56;101766.44;;;10.74;57.02
59337;BME280;45115;52.002;4.686;2023-04-25T10:27:23;101758.63;;;10.81;57.33
59337;BME280;45115;52.002;4.686;2023-04-25T10:30:01;101762.47;;;10.78;56.12
59337;BME280;45115;52.002;4.686;2023-04-25T10:32:30;101764.47;;;11.74;54.80
59337;BME280;45115;52.002;4.686;2023-04-25T10:34:57;101746.41;;;11.61;52.95
59337;BME280;45115;52.002;4.686;2023-04-25T10:37:24;101765.47;;;10.75;59.29
59337;BME280;45115;52.002;4.686;2023-04-25T10:39:51;101759.47;;;10.81;58.12
59337;BME280;45115;52.002;4.686;2023-04-25T10:42:19;101766.09;;;10.79;56.38
59337;BME280;45115;52.002;4.686;2023-04-25T10:45:04;101763.00;;;10.72;57.27
59337;BME280;45115;52.002;4.686;2023-04-25T10:47:35;101772.34;;;10.81;58.33
59337;BME280;45115;52.002;4.686;2023-04-25T10:50:05;101767.06;;;10.78;55.81
59337;BME280;45115;52.002;4.686;2023-04-25T10:52:32;101760.13;;;11.07;57.28
59337;BME280;45115;52.002;4.686;2023-04-25T10:55:02;101763.03;;;11.48;49.50
59337;BME280;45115;52.002;4.686;2023-04-25T10:57:31;101756.81;;;11.89;49.37
59337;BME280;45115;52.002;4.686;2023-04-25T11:00:00;101757.25;;;12.05;51.49
59337;BME280;45115;52.002;4.686;2023-04-25T11:02:31;101756.22;;;11.20;53.16
59337;BME280;45115;52.002;4.686;2023-04-25T11:04:59;101762.81;;;10.52;53.63
59337;BME280;45115;52.002;4.686;2023-04-25T11:07:33;101775.69;;;11.06;55.07
59337;BME280;45115;52.002;4.686;2023-04-25T11:10:03;101763.50;;;11.53;53.68
59337;BME280;45115;52.002;4.686;2023-04-25T11:12:30;101763.59;;;10.87;52.81
59337;BME280;45115;52.002;4.686;2023-04-25T11:15:02;101764.00;;;11.69;53.35
59337;BME280;45115;52.002;4.686;2023-04-25T11:17:29;101767.59;;;11.81;50.73
59337;BME280;45115;52.002;4.686;2023-04-25T11:19:57;101770.22;;;11.60;52.69
59337;BME280;45115;52.002;4.686;2023-04-25T11:22:24;101769.13;;;11.74;51.91
59337;BME280;45115;52.002;4.686;2023-04-25T11:24:50;101776.84;;;11.58;50.69
59337;BME280;45115;52.002;4.686;2023-04-25T11:27:17;101770.50;;;11.68;52.39
59337;BME280;45115;52.002;4.686;2023-04-25T11:29:44;101771.53;;;11.45;49.92
59337;BME280;45115;52.002;4.686;2023-04-25T11:32:14;101785.47;;;10.43;51.32
59337;BME280;45115;52.002;4.686;2023-04-25T11:34:43;101778.41;;;10.17;53.19
59337;BME280;45115;52.002;4.686;2023-04-25T11:37:12;101793.63;;;10.77;53.29
59337;BME280;45115;52.002;4.686;2023-04-25T11:39:42;101784.00;;;10.61;51.78
59337;BME280;45115;52.002;4.686;2023-04-25T11:42:09;101789.63;;;10.70;51.28
59337;BME280;45115;52.002;4.686;2023-04-25T11:44:37;101790.63;;;10.69;53.53
59337;BME280;45115;52.002;4.686;2023-04-25T11:47:04;101789.53;;;11.16;51.57
59337;BME280;45115;52.002;4.686;2023-04-25T11:49:32;101791.88;;;11.09;50.85
59337;BME280;45115;52.002;4.686;2023-04-25T11:52:00;101794.13;;;11.15;53.12
59337;BME280;45115;52.002;4.686;2023-04-25T11:54:28;101785.47;;;12.27;51.33
59337;BME280;45115;52.002;4.686;2023-04-25T11:56:55;101798.47;;;11.18;52.72
59337;BME280;45115;52.002;4.686;2023-04-25T11:59:24;101803.31;;;10.81;54.29
59337;BME280;45115;52.002;4.686;2023-04-25T12:01:51;101797.31;;;11.43;50.13
59337;BME280;45115;52.002;4.686;2023-04-25T12:04:20;101802.09;;;10.85;48.81
59337;BME280;45115;52.002;4.686;2023-04-25T12:06:48;101804.97;;;11.17;49.74
59337;BME280;45115;52.002;4.686;2023-04-25T12:09:16;101802.97;;;11.08;50.37
59337;BME280;45115;52.002;4.686;2023-04-25T12:11:46;101803.19;;;10.61;51.80
59337;BME280;45115;52.002;4.686;2023-04-25T12:14:20;101815.19;;;10.36;54.13
59337;BME280;45115;52.002;4.686;2023-04-25T12:16:48;101813.19;;;10.03;53.89
59337;BME280;45115;52.002;4.686;2023-04-25T12:19:15;101814.91;;;10.63;52.86
59337;BME280;45115;52.002;4.686;2023-04-25T12:21:43;101815.25;;;11.80;49.89
59337;BME280;45115;52.002;4.686;2023-04-25T12:24:11;101813.56;;;11.23;51.35
59337;BME280;45115;52.002;4.686;2023-04-25T12:26:53;101815.72;;;11.09;52.01
59337;BME280;45115;52.002;4.686;2023-04-25T12:29:21;101823.13;;;11.73;48.83
59337;BME280;45115;52.002;4.686;2023-04-25T12:31:48;101833.09;;;10.75;48.94
59337;BME280;45115;52.002;4.686;2023-04-25T12:34:15;101824.75;;;10.31;48.73
59337;BME280;45115;52.002;4.686;2023-04-25T12:36:42;101835.25;;;10.37;48.19
59337;BME280;45115;52.002;4.686;2023-04-25T12:39:14;101839.31;;;10.55;48.33
59337;BME280;45115;52.002;4.686;2023-04-25T12:41:41;101831.13;;;11.54;47.00
59337;BME280;45115;52.002;4.686;2023-04-25T12:44:09;101824.50;;;12.10;45.68
59337;BME280;45115;52.002;4.686;2023-04-25T12:46:35;101827.28;;;13.13;49.07
59337;BME280;45115;52.002;4.686;2023-04-25T12:49:03;101844.13;;;11.95;48.76
59337;BME280;45115;52.002;4.686;2023-04-25T12:51:30;101839.19;;;10.67;53.18
59337;BME280;45115;52.002;4.686;2023-04-25T12:53:58;101845.94;;;10.85;54.85
59337;BME280;45115;52.002;4.686;2023-04-25T12:56:25;101841.50;;;11.06;54.73
59337;BME280;45115;52.002;4.686;2023-04-25T12:58:52;101842.91;;;10.55;56.63
59337;BME280;45115;52.002;4.686;2023-04-25T13:01:20;101841.06;;;10.21;54.93
59337;BME280;45115;52.002;4.686;2023-04-25T13:03:47;101839.84;;;9.89;56.02
59337;BME280;45115;52.002;4.686;2023-04-25T13:06:14;101850.00;;;9.99;56.34
59337;BME280;45115;52.002;4.686;2023-04-25T13:08:41;101849.19;;;9.86;57.46
59337;BME280;45115;52.002;4.686;2023-04-25T13:11:08;101847.59;;;10.42;51.79
59337;BME280;45115;52.002;4.686;2023-04-25T13:13:34;101839.75;;;11.16;54.25